Pagina principale
METAR-TAF:

METAR-TAF

Aeroporti :

Aeroporto di Lamezia Terme

Lamezia Terme, Italia

latitudine: 38-54N, longitudine: 016-15E, altezza: 15 m

Osservazione

Il bollettino è stato emesso 29 minuti fa, alle 11:20 UTC
Vento 18 kt da est
Temperature 19°C
Umidità 73%
Pressione 1017 hPa
Visibilità 10 km o più
Nubi sparse ad un'altezza di 2000 ft
Nubi sparse ad un'altezza di 5000 ft

METAR: LICA 261120Z 09018KT 9999 SCT020 SCT050 19/14 Q1017

Ora: 13:49 (11:49 UTC)

Previsione

Il bollettino è stato emesso 49 minuti fa, alle 11:00 UTC
Previsione valida dal 26 alle 12 UTC al 27 alle 12 UTC
Vento 14 kt da est
Visibilità 10 km o più
Nubi sparse ad un'altezza di 2000 ft
Temporaneamente
dal 26 alle 12 UTC al 26 alle 16 UTC
pioggia

TAF: LICA 261100Z 2612/2712 09014KT 9999 SCT020 TEMPO 2612/2616 RA

Osservazioni e previsioni meteorologiche di più di 4000 aeroporti (messaggi METAR e TAF).

Le stazioni disponibili sono rappresentate dai dischi gialli e rossi sulla carta.

Puntare il mouse per vedere il nome della stazione.

Clicca sopra per visualizzare le osservazioni e previsioni meteorologiche.

Per cambiare la mappa : fare clic sui pulsanti verdi con una croce nera per ingrandire, il pulsante verde con un trattino per diminuire, o sulla freccia verde per le mappe adiacenti.


METAR-TAF: